Time;durP1;ratioP1;P1;durP2;ratioP2;P2;SDS_P1;SDS_P2;PMS_P1;PMS_P2;Temp;Humidity;BMP_temperature;BMP_pressure;BME280_temperature;BME280_humidity;BME280_pressure;Samples;Min_cycle;Max_cycle;Signal;HPM_P1;HPM_P2
2022/06/22 04:07:50;;;;;;;4.32;2.40;;;;;;;19.06;50.31;100214.75;5605881;31;80793;-58
2022/06/22 04:11:24;;;;;;;6.00;2.40;;;;;;;19.06;50.31;100214.75;5591913;31;34127;-59
2022/06/22 04:14:46;;;;;;;3.35;2.10;;;;;;;18.72;50.97;100197.81;5583968;32;34233;-59
2022/06/22 04:17:53;;;;;;;4.62;2.00;;;;;;;18.85;50.25;100199.38;5584968;31;33242;-59
2022/06/22 04:21:04;;;;;;;6.82;2.10;;;;;;;19.04;50.11;100201.53;5602985;31;33540;-59
2022/06/22 04:24:14;;;;;;;4.00;2.37;;;;;;;19.10;52.66;100197.44;5603417;31;33517;-59
2022/06/22 04:27:30;;;;;;;6.47;2.25;;;;;;;19.27;59.98;100198.31;5602993;31;34173;-59
2022/06/22 04:30:40;;;;;;;6.30;2.30;;;;;;;19.33;55.01;100191.50;5602200;31;33897;-59
2022/06/22 04:33:48;;;;;;;3.78;2.03;;;;;;;19.45;50.62;100191.47;5603648;31;33563;-59
2022/06/22 04:36:55;;;;;;;4.57;2.10;;;;;;;19.48;51.58;100196.22;5603498;31;33596;-59
2022/06/22 04:40:10;;;;;;;7.28;2.55;;;;;;;19.65;49.47;100203.34;5603386;31;33718;-59
2022/06/22 04:43:13;;;;;;;4.97;2.50;;;;;;;19.65;54.20;100211.50;5603195;31;33543;-59
2022/06/22 04:46:27;;;;;;;9.43;2.20;;;;;;;19.73;51.93;100215.19;5603262;31;34119;-59
2022/06/22 04:49:32;;;;;;;3.67;2.00;;;;;;;19.90;53.58;100217.63;5603512;31;33733;-59
2022/06/22 04:52:38;;;;;;;7.17;2.10;;;;;;;19.97;51.50;100217.03;5603226;31;34223;-59
2022/06/22 04:55:41;;;;;;;7.87;2.40;;;;;;;20.13;50.03;100224.09;5603011;31;33688;-59
2022/06/22 04:58:51;;;;;;;5.25;2.20;;;;;;;20.18;50.24;100220.34;5602858;31;33609;-59
2022/06/22 05:02:04;;;;;;;3.12;1.90;;;;;;;20.18;50.54;100218.41;5602870;31;33335;-59
2022/06/22 05:05:23;;;;;;;7.22;2.15;;;;;;;20.26;53.52;100224.03;5602517;31;34175;-59
2022/06/22 05:08:33;;;;;;;7.18;2.08;;;;;;;20.25;53.55;100233.34;5601419;31;32179;-59
2022/06/22 05:11:42;;;;;;;4.78;1.90;;;;;;;20.39;50.20;100233.69;5590872;31;33773;-59
2022/06/22 05:14:46;;;;;;;6.28;2.30;;;;;;;20.61;56.60;100241.31;5589898;31;34407;-59
2022/06/22 05:17:49;;;;;;;6.78;2.10;;;;;;;20.76;48.98;100247.91;5582182;31;34237;-59
2022/06/22 05:21:21;;;;;;;7.82;2.22;;;;;;;20.92;49.81;100252.53;5574764;31;34039;-59
2022/06/22 05:24:30;;;;;;;4.50;2.20;;;;;;;21.07;48.92;100254.47;5572502;31;33934;-58
2022/06/22 05:28:06;;;;;;;10.65;2.30;;;;;;;21.29;50.42;100264.72;5589166;31;33791;-59
2022/06/22 05:31:27;;;;;;;5.90;2.05;;;;;;;21.51;48.52;100267.94;5574107;31;33597;-59
2022/06/22 05:34:32;;;;;;;7.62;1.98;;;;;;;21.70;47.90;100267.19;5578866;31;33667;-59
2022/06/22 05:37:40;;;;;;;28.15;2.65;;;;;;;21.86;46.94;100261.66;5572277;31;33489;-59
2022/06/22 05:40:45;;;;;;;13.68;2.75;;;;;;;22.00;47.82;100261.94;5587974;31;33674;-59
2022/06/22 05:43:48;;;;;;;9.65;2.25;;;;;;;22.18;50.47;100265.81;5586606;31;34261;-59
2022/06/22 05:46:55;;;;;;;5.60;1.85;;;;;;;22.35;47.29;100272.78;5580692;31;33678;-59
2022/06/22 05:50:04;;;;;;;3.95;1.50;;;;;;;22.38;48.36;100261.13;5587750;31;33671;-60
2022/06/22 05:53:22;;;;;;;4.50;1.70;;;;;;;22.51;41.57;100264.47;5583166;31;33605;-58
2022/06/22 05:56:31;;;;;;;3.67;1.40;;;;;;;22.57;38.37;100273.16;5584992;31;33843;-59
2022/06/22 05:59:45;;;;;;;3.97;1.50;;;;;;;22.74;38.69;100276.19;5570860;31;34356;-58
2022/06/22 06:03:04;;;;;;;3.28;1.60;;;;;;;22.94;38.88;100257.81;5580407;31;33698;-58
2022/06/22 06:06:25;;;;;;;4.55;1.23;;;;;;;23.00;41.36;100266.50;5582313;31;33787;-58
2022/06/22 06:09:30;;;;;;;5.47;1.70;;;;;;;23.06;39.10;100264.25;5588715;31;34359;-59
2022/06/22 06:12:39;;;;;;;5.68;1.60;;;;;;;23.14;36.56;100269.44;5588883;31;34324;-58
2022/06/22 06:15:41;;;;;;;25.67;2.20;;;;;;;23.14;35.89;100285.84;5578655;31;34231;-58
2022/06/22 06:18:46;;;;;;;2.65;1.42;;;;;;;23.03;36.34;100275.91;5588015;31;33602;-58
2022/06/22 06:21:54;;;;;;;3.40;1.40;;;;;;;22.94;34.49;100268.72;5588731;31;34447;-58
2022/06/22 06:28:35;;;;;;;2.08;1.52;;;;;;;22.88;38.33;100264.72;5586500;31;33710;-58
2022/06/22 06:32:02;;;;;;;11.18;2.10;;;;;;;22.92;36.30;100281.97;5585022;31;33656;-58
2022/06/22 06:35:32;;;;;;;17.02;2.15;;;;;;;23.01;39.35;100262.59;5579460;31;33653;-58
2022/06/22 06:38:59;;;;;;;30.02;3.62;;;;;;;23.12;40.95;100263.56;5588093;31;32274;-58
2022/06/22 06:42:16;;;;;;;3.55;1.65;;;;;;;23.04;40.14;100272.00;5572295;31;33793;-58
2022/06/22 06:45:24;;;;;;;3.25;1.60;;;;;;;22.95;40.65;100266.81;5578223;31;33388;-58
2022/06/22 06:48:30;;;;;;;5.65;1.52;;;;;;;22.88;40.83;100264.72;5581579;31;34337;-59
2022/06/22 06:51:51;;;;;;;2.35;1.20;;;;;;;23.02;40.98;100263.41;5588313;31;33722;-58
2022/06/22 06:55:04;;;;;;;5.90;1.40;;;;;;;23.06;37.78;100258.78;5588736;31;33658;-59
2022/06/22 06:58:27;;;;;;;2.00;1.42;;;;;;;23.00;36.38;100260.22;5587444;31;34364;-58
2022/06/22 07:01:33;;;;;;;1.60;1.30;;;;;;;23.05;36.19;100260.72;5568809;32;34295;-58
2022/06/22 07:04:36;;;;;;;2.58;1.40;;;;;;;23.04;36.80;100264.59;5583299;31;33637;-58
2022/06/22 07:07:48;;;;;;;6.10;1.67;;;;;;;22.91;40.18;100257.72;5588080;31;33676;-58
2022/06/22 07:11:00;;;;;;;2.12;1.30;;;;;;;22.88;38.25;100278.41;5588080;31;33637;-58
2022/06/22 07:14:15;;;;;;;3.03;1.50;;;;;;;22.85;37.25;100261.94;5588313;31;33699;-58
2022/06/22 07:17:21;;;;;;;5.10;1.33;;;;;;;23.06;36.19;100242.38;5588231;31;33680;-58
2022/06/22 07:20:42;;;;;;;6.47;1.25;;;;;;;23.10;34.14;100246.72;5588332;31;33566;-58
2022/06/22 07:23:48;;;;;;;3.53;1.62;;;;;;;;;;5583605;31;33634;-59
2022/06/22 07:27:05;;;;;;;1.85;1.23;;;;;;;23.24;34.58;100248.09;5578708;31;34683;-58
2022/06/22 07:30:20;;;;;;;5.82;1.40;;;;;;;23.23;33.23;100247.31;5584572;31;34372;-58
2022/06/22 07:33:40;;;;;;;6.78;1.50;;;;;;;23.14;34.29;100235.84;5585336;31;34172;-59
2022/06/22 07:36:48;;;;;;;4.22;1.50;;;;;;;23.34;35.40;100234.56;5572944;31;33647;-58
2022/06/22 07:40:11;;;;;;;5.50;1.83;;;;;;;23.33;35.38;100241.19;5577447;31;34366;-58
2022/06/22 07:43:13;;;;;;;9.82;1.55;;;;;;;23.25;36.20;100246.94;5577619;31;33834;-59
2022/06/22 07:46:25;;;;;;;4.53;1.70;;;;;;;23.39;36.64;100236.97;5584033;31;33593;-59
2022/06/22 07:49:39;;;;;;;4.97;1.50;;;;;;;23.53;36.17;100230.91;5575916;31;34477;-59
2022/06/22 07:52:51;;;;;;;4.87;1.50;;;;;;;23.49;36.41;100234.75;5568362;32;34279;-59
2022/06/22 07:56:09;;;;;;;4.37;1.45;;;;;;;23.47;36.65;100240.59;5567944;31;34333;-58
2022/06/22 07:59:20;;;;;;;8.15;2.03;;;;;;;23.44;37.26;100238.59;5575663;31;34443;-59
2022/06/22 08:02:27;;;;;;;3.28;1.55;;;;;;;23.60;39.32;100236.47;5568335;31;33671;-59
2022/06/22 08:05:36;;;;;;;26.27;2.53;;;;;;;23.66;36.13;100236.94;5572525;31;33673;-58
2022/06/22 08:08:56;;;;;;;4.32;1.62;;;;;;;23.92;36.35;100228.66;5587435;31;34628;-58
2022/06/22 08:12:07;;;;;;;10.05;2.42;;;;;;;24.07;37.75;100226.06;5586773;31;33627;-58
2022/06/22 08:15:15;;;;;;;2.37;1.45;;;;;;;24.11;35.00;100218.72;5587370;31;34190;-58
2022/06/22 08:18:19;;;;;;;4.37;1.35;;;;;;;24.10;33.21;100217.91;5587541;31;33617;-58
2022/06/22 08:21:22;;;;;;;7.75;1.30;;;;;;;24.21;33.79;100214.50;5583097;31;33725;-58
2022/06/22 08:24:26;;;;;;;4.85;1.10;;;;;;;24.50;39.64;100212.81;5586452;31;34487;-58
2022/06/22 08:27:30;;;;;;;8.45;1.40;;;;;;;24.57;33.85;100215.66;5587081;31;34214;-58
2022/06/22 08:30:33;;;;;;;18.50;1.83;;;;;;;24.52;32.05;100210.50;5583286;31;33633;-58
2022/06/22 08:33:46;;;;;;;16.45;1.60;;;;;;;24.47;30.94;100210.84;5586921;31;34222;-58
2022/06/22 08:36:55;;;;;;;3.78;0.90;;;;;;;24.39;27.87;100215.44;5585727;31;34428;-58
2022/06/22 08:40:06;;;;;;;7.40;1.20;;;;;;;24.33;26.20;100203.25;5585634;31;33813;-58
2022/06/22 08:43:38;;;;;;;9.40;1.08;;;;;;;24.44;31.54;100208.88;5569597;31;33099;-58
2022/06/22 08:47:17;;;;;;;6.85;1.15;;;;;;;24.48;33.15;100201.47;5584697;31;33134;-58
2022/06/22 08:50:40;;;;;;;4.55;1.00;;;;;;;24.53;28.87;100201.88;5552017;32;33241;-58
2022/06/22 08:54:00;;;;;;;2.12;1.10;;;;;;;24.47;27.26;100200.69;5580940;31;33587;-58
2022/06/22 08:57:28;;;;;;;10.85;1.52;;;;;;;24.55;26.17;100205.03;5581444;31;33531;-58
2022/06/22 09:00:44;;;;;;;5.72;0.90;;;;;;;24.64;26.65;100209.44;5587643;31;33605;-59
2022/06/22 09:04:09;;;;;;;5.43;1.00;;;;;;;24.58;26.32;100215.25;5572587;31;34336;-58
2022/06/22 09:07:14;;;;;;;2.05;0.93;;;;;;;24.78;29.39;100209.53;5575555;31;34305;-59
2022/06/22 09:10:41;;;;;;;14.77;1.65;;;;;;;24.79;27.04;100213.84;5576240;31;33278;-58
2022/06/22 09:13:57;;;;;;;5.30;0.98;;;;;;;24.79;26.97;100213.84;5573207;31;33738;-59
2022/06/22 09:17:27;;;;;;;5.18;0.70;;;;;;;24.79;28.29;100208.34;5589324;31;33462;-59
2022/06/22 09:20:38;;;;;;;7.32;1.20;;;;;;;24.89;24.15;100209.59;5587884;31;33457;-59
2022/06/22 09:24:03;;;;;;;19.70;1.75;;;;;;;24.97;24.55;100212.03;5582430;31;33867;-58
2022/06/22 09:27:18;;;;;;;10.50;1.40;;;;;;;25.01;25.45;100204.59;5571341;31;34283;-58
2022/06/22 09:30:35;;;;;;;5.55;1.05;;;;;;;25.00;26.45;100194.81;5586504;31;33614;-59
2022/06/22 09:33:43;;;;;;;2.78;0.95;;;;;;;25.19;26.95;100188.25;5581180;31;33638;-58
2022/06/22 09:37:09;;;;;;;1.17;0.90;;;;;;;25.25;26.47;100194.19;5583663;31;33697;-59
2022/06/22 09:40:31;;;;;;;2.15;0.80;;;;;;;25.11;26.48;100186.63;5589146;31;34479;-59
2022/06/22 09:43:43;;;;;;;2.00;0.70;;;;;;;24.99;27.03;100178.72;5574898;31;33792;-59
2022/06/22 09:47:23;;;;;;;1.40;0.75;;;;;;;25.03;27.43;100180.34;5585350;31;33679;-59
2022/06/22 09:50:28;;;;;;;1.75;0.93;;;;;;;25.10;28.07;100168.59;5584825;31;33625;-59
2022/06/22 09:53:43;;;;;;;2.40;0.93;;;;;;;25.25;26.87;100185.94;5589607;31;34261;-59
2022/06/22 09:57:05;;;;;;;4.32;0.80;;;;;;;25.23;24.87;100183.59;5589069;31;33541;-59
2022/06/22 10:00:22;;;;;;;2.65;1.00;;;;;;;25.26;26.13;100182.03;5575303;31;34421;-59
2022/06/22 10:03:39;;;;;;;1.70;1.10;;;;;;;25.24;28.19;100168.69;5570052;32;33856;-59
2022/06/22 10:07:15;;;;;;;1.12;0.80;;;;;;;25.31;26.96;100174.22;5576277;31;33907;-59
2022/06/22 10:10:59;;;;;;;2.75;1.08;;;;;;;25.42;26.07;100171.50;5569491;31;33708;-58
2022/06/22 10:14:04;;;;;;;3.65;0.90;;;;;;;25.45;28.36;100168.00;5576036;31;33717;-58
2022/06/22 10:17:30;;;;;;;1.80;0.80;;;;;;;25.61;25.86;100181.41;5569631;32;34056;-58
2022/06/22 10:20:58;;;;;;;1.98;0.90;;;;;;;25.66;25.92;100175.53;5587744;31;33631;-59
2022/06/22 10:24:17;;;;;;;3.22;0.98;;;;;;;25.70;28.01;100172.81;5587645;31;33658;-59
2022/06/22 10:27:43;;;;;;;1.92;0.93;;;;;;;25.67;26.01;100170.84;5569806;31;33585;-58
2022/06/22 10:31:09;;;;;;;4.00;1.17;;;;;;;25.65;26.15;100190.41;5569227;32;34318;-58
2022/06/22 10:34:38;;;;;;;1.55;0.80;;;;;;;25.67;27.33;100174.34;5569526;31;31889;-58
2022/06/22 10:38:13;;;;;;;5.78;1.62;;;;;;;25.69;25.34;100171.22;5588844;31;33743;-58
2022/06/22 10:45:16;;;;;;;3.03;0.90;;;;;;;25.86;25.60;100178.75;5587375;31;34327;-59
2022/06/22 10:48:33;;;;;;;3.55;1.10;;;;;;;25.94;26.87;100185.06;5588648;31;33722;-58
2022/06/22 10:51:46;;;;;;;2.53;0.93;;;;;;;25.86;25.76;100186.19;5588484;31;34389;-58
2022/06/22 10:55:26;;;;;;;18.33;1.42;;;;;;;25.95;25.50;100181.12;5587396;31;33652;-58
2022/06/22 10:59:25;;;;;;;0.70;0.70;;;;;;;26.00;21.85;100178.78;5588556;31;34383;-58
2022/06/22 11:03:09;;;;;;;1.45;0.65;;;;;;;26.23;21.17;100180.38;5506846;32;34260;-58
2022/06/22 11:06:28;;;;;;;1.35;0.73;;;;;;;26.12;22.47;100174.09;5525708;31;33604;-58
2022/06/22 11:09:30;;;;;;;1.60;0.60;;;;;;;26.14;22.73;100179.97;5567965;32;33380;-58
2022/06/22 11:12:47;;;;;;;3.08;0.80;;;;;;;26.05;22.26;100179.56;5568419;32;33771;-58
2022/06/22 11:16:01;;;;;;;5.82;1.25;;;;;;;26.07;25.26;100174.47;5567750;32;33878;-59
2022/06/22 11:19:28;;;;;;;1.30;0.90;;;;;;;26.21;26.99;100178.00;5568016;32;33675;-59
2022/06/22 11:22:46;;;;;;;1.98;0.90;;;;;;;26.38;26.48;100175.66;5568395;32;33778;-59
2022/06/22 11:33:13;;;;;;;4.80;1.00;;;;;;;26.51;25.83;100165.87;5568714;32;34334;-59
2022/06/22 11:36:39;;;;;;;2.22;0.90;;;;;;;26.59;26.27;100167.47;5568891;32;33844;-59
2022/06/22 11:40:32;;;;;;;3.17;0.95;;;;;;;26.74;26.29;100153.69;5568744;32;33995;-59
2022/06/22 11:43:46;;;;;;;2.28;0.90;;;;;;;26.63;25.42;100168.22;5568214;32;33785;-59
2022/06/22 11:46:52;;;;;;;1.93;1.10;;;;;;;26.55;24.86;100146.63;5568781;32;33617;-59
2022/06/22 11:50:13;;;;;;;1.60;0.70;;;;;;;26.61;24.67;100136.81;5568561;32;33438;-59
2022/06/22 11:53:42;;;;;;;3.97;0.90;;;;;;;26.58;24.70;100130.12;5567322;32;33568;-58
2022/06/22 11:56:57;;;;;;;2.17;1.00;;;;;;;26.61;24.46;100139.56;5568336;32;34261;-59
2022/06/22 12:00:30;;;;;;;2.00;0.95;;;;;;;26.69;24.16;100130.91;5568545;32;33772;-59
2022/06/22 12:04:00;;;;;;;2.05;0.80;;;;;;;26.61;23.11;100126.59;5568294;32;34486;-59
2022/06/22 12:07:30;;;;;;;3.40;1.33;;;;;;;26.57;23.80;100125.03;5568430;32;33784;-59
2022/06/22 12:11:01;;;;;;;1.67;1.07;;;;;;;26.55;25.70;100135.63;5568582;32;33213;-59
2022/06/22 12:17:54;;;;;;;0.73;0.73;;;;;;;26.89;24.93;100128.50;5567390;32;33802;-59
2022/06/22 12:21:24;;;;;;;5.90;1.17;;;;;;;26.93;24.61;100125.75;5567899;32;33632;-58
2022/06/22 12:24:53;;;;;;;1.00;0.90;;;;;;;27.04;24.61;100126.50;5568076;32;33875;-59
2022/06/22 12:28:18;;;;;;;1.80;0.90;;;;;;;27.04;24.61;100115.50;5569019;32;33735;-58
2022/06/22 12:31:24;;;;;;;4.37;0.95;;;;;;;27.03;25.35;100113.94;5570704;32;34190;-59
2022/06/22 12:34:33;;;;;;;2.50;0.90;;;;;;;27.08;23.80;100126.47;5570508;32;33723;-58
2022/06/22 12:37:42;;;;;;;1.60;0.75;;;;;;;26.99;20.77;100112.34;5570585;32;33658;-59
2022/06/22 12:40:56;;;;;;;1.67;0.93;;;;;;;26.96;22.29;100115.94;5570500;32;33821;-59
2022/06/22 12:44:41;;;;;;;3.42;1.10;;;;;;;26.97;25.36;100111.97;5570378;32;33655;-59
2022/06/22 12:48:22;;;;;;;2.53;1.30;;;;;;;27.01;26.50;100105.28;5570122;32;33531;-59
2022/06/22 12:51:30;;;;;;;2.30;1.20;;;;;;;26.97;27.45;100096.25;5570566;32;34043;-56
2022/06/22 12:54:41;;;;;;;3.40;1.30;;;;;;;26.93;27.46;100090.78;5570423;32;33809;-57
2022/06/22 12:57:55;;;;;;;4.87;1.50;;;;;;;26.96;28.56;100083.69;5576973;31;34277;-57
2022/06/22 13:01:05;;;;;;;2.58;1.37;;;;;;;27.03;28.12;100086.41;5589721;31;33753;-56
2022/06/22 13:04:13;;;;;;;2.22;1.27;;;;;;;27.20;27.48;100087.56;5589874;31;33775;-57
2022/06/22 13:07:19;;;;;;;4.47;1.95;;;;;;;27.22;27.19;100087.13;5590132;31;33255;-57
2022/06/22 13:10:34;;;;;;;3.72;1.50;;;;;;;27.15;27.60;100090.72;5589731;31;33830;-57
2022/06/22 13:13:48;;;;;;;7.12;1.85;;;;;;;27.22;27.90;100082.44;5589912;31;34240;-56
2022/06/22 13:17:16;;;;;;;7.85;2.17;;;;;;;27.22;28.41;100076.94;5589865;31;33686;-57
2022/06/22 13:20:39;;;;;;;6.35;1.90;;;;;;;27.26;29.74;100071.41;5589429;31;34279;-56
2022/06/22 13:24:03;;;;;;;9.10;2.17;;;;;;;27.34;28.44;100068.22;5590008;31;33777;-57
2022/06/22 13:27:20;;;;;;;2.60;1.42;;;;;;;27.38;26.70;100062.69;5589559;31;33890;-56
2022/06/22 13:30:41;;;;;;;4.57;1.35;;;;;;;27.41;27.12;100057.16;5589733;31;34300;-56
2022/06/22 13:33:49;;;;;;;10.40;1.95;;;;;;;27.43;27.32;100067.78;5589723;31;34331;-57
2022/06/22 13:37:04;;;;;;;6.35;1.40;;;;;;;27.40;27.46;100065.81;5589738;31;33709;-57
2022/06/22 13:40:26;;;;;;;11.10;1.83;;;;;;;27.43;26.26;100061.50;5589354;31;34366;-57
2022/06/22 13:43:45;;;;;;;3.35;1.55;;;;;;;27.43;27.29;100065.03;5589825;31;34409;-56
2022/06/22 13:46:53;;;;;;;4.15;1.35;;;;;;;27.46;27.15;100064.22;5589532;31;34228;-56
2022/06/22 13:50:18;;;;;;;10.60;1.65;;;;;;;27.53;28.21;100066.91;5589472;31;33602;-56
2022/06/22 13:53:42;;;;;;;5.35;1.42;;;;;;;27.61;26.70;100065.66;5589603;31;33725;-57
2022/06/22 13:56:56;;;;;;;4.05;1.50;;;;;;;27.62;27.16;100063.72;5589355;31;34347;-56
2022/06/22 14:00:09;;;;;;;5.90;1.50;;;;;;;27.59;27.54;100053.53;5589483;31;33706;-56
2022/06/22 14:03:30;;;;;;;4.93;1.65;;;;;;;27.55;27.17;100055.50;5589141;31;34368;-56
2022/06/22 14:06:53;;;;;;;8.40;1.70;;;;;;;27.40;28.27;100052.06;5589311;31;33443;-57
2022/06/22 14:10:33;;;;;;;3.90;1.55;;;;;;;27.40;28.27;100049.31;5589564;31;34458;-57
2022/06/22 14:14:03;;;;;;;9.38;1.87;;;;;;;27.45;27.74;100053.59;5589454;31;33636;-56
2022/06/22 14:17:09;;;;;;;;;;;;;;;27.45;28.40;100054.41;5589437;31;33327;-57
2022/06/22 14:20:34;;;;;;;6.18;1.77;;;;;;;27.49;28.65;100046.91;5589365;31;34050;-57
2022/06/22 14:23:37;;;;;;;;;;;;;;;27.56;27.92;100043.31;5589629;31;33633;-57
2022/06/22 14:27:02;;;;;;;5.40;1.67;;;;;;;27.54;29.67;100057.47;5569053;31;33277;-56
2022/06/22 14:30:38;;;;;;;6.32;1.65;;;;;;;27.62;28.68;100055.47;5588640;31;34061;-57
2022/06/22 14:34:35;;;;;;;14.25;2.10;;;;;;;27.67;28.75;100054.25;5587408;31;33762;-56
2022/06/22 14:38:14;;;;;;;2.90;1.48;;;;;;;27.76;28.54;100049.88;5585926;31;33322;-57
2022/06/22 14:41:21;;;;;;;8.55;1.80;;;;;;;27.77;28.67;100053.41;5566003;31;33734;-56
2022/06/22 14:45:05;;;;;;;3.33;1.90;;;;;;;27.78;28.91;100047.50;5588407;31;34424;-57
2022/06/22 14:48:22;;;;;;;4.43;1.73;;;;;;;27.74;28.53;100040.41;5565887;31;33712;-57
2022/06/22 14:51:27;;;;;;;4.10;2.08;;;;;;;27.84;28.74;100036.81;5584535;31;33713;-57
